Time;durP1;ratioP1;P1;durP2;ratioP2;P2;SDS_P1;SDS_P2;PMS_P1;PMS_P2;Temp;Humidity;BMP_temperature;BMP_pressure;BME280_temperature;BME280_humidity;BME280_pressure;Samples;Min_cycle;Max_cycle;Signal;HPM_P1;HPM_P2
2023/12/03 18:47:10;;;;;;;53.90;32.45;;;;;;;;;;6795323;19;48363;-75
2023/12/03 18:49:35;;;;;;;56.25;34.10;;;;;;;;;;7351066;19;20014;-74
2023/12/03 18:52:03;;;;;;;51.97;32.15;;;;;;;;;;7352392;19;19991;-75
2023/12/03 18:54:28;;;;;;;53.88;32.50;;;;;;;;;;7354100;19;20255;-74
2023/12/03 18:56:53;;;;;;;59.88;35.88;;;;;;;;;;7362956;19;20128;-74
2023/12/03 18:59:19;;;;;;;57.33;35.05;;;;;;;;;;7361954;19;20003;-74
2023/12/03 19:01:44;;;;;;;56.53;32.88;;;;;;;;;;7346544;19;20452;-75
2023/12/03 19:04:13;;;;;;;57.38;34.42;;;;;;;;;;7341492;19;20070;-74
2023/12/03 19:06:38;;;;;;;59.40;33.97;;;;;;;;;;7357815;19;20003;-74
2023/12/03 19:09:04;;;;;;;57.38;33.80;;;;;;;;;;7352567;19;19994;-74
2023/12/03 19:11:29;;;;;;;57.92;34.97;;;;;;;;;;7365098;19;20068;-74
2023/12/03 19:13:55;;;;;;;57.20;32.65;;;;;;;;;;7355925;19;20107;-75
2023/12/03 19:16:20;;;;;;;58.22;33.92;;;;;;;;;;7348286;19;20018;-74
2023/12/03 19:18:46;;;;;;;55.33;33.88;;;;;;;;;;7358905;19;20007;-74
2023/12/03 19:21:11;;;;;;;56.97;34.03;;;;;;;;;;7354685;19;20439;-74
2023/12/03 19:23:36;;;;;;;55.72;32.03;;;;;;;;;;7352782;19;20463;-75
2023/12/03 19:26:02;;;;;;;55.17;32.20;;;;;;;;;;7358036;19;20027;-74
2023/12/03 19:28:27;;;;;;;58.80;33.10;;;;;;;;;;7361582;19;20025;-74
2023/12/03 19:30:52;;;;;;;58.03;33.90;;;;;;;;;;7358305;19;20293;-75
2023/12/03 19:33:17;;;;;;;53.55;32.58;;;;;;;;;;7350346;19;20055;-74
2023/12/03 19:35:42;;;;;;;61.88;36.45;;;;;;;;;;7319080;19;20387;-74
2023/12/03 19:38:10;;;;;;;53.75;32.92;;;;;;;;;;7348986;19;20039;-74
2023/12/03 19:40:35;;;;;;;50.75;30.52;;;;;;;;;;7361455;19;20070;-74
2023/12/03 19:43:00;;;;;;;57.83;33.40;;;;;;;;;;7346506;19;20416;-75
2023/12/03 19:45:26;;;;;;;50.72;30.52;;;;;;;;;;7354949;19;20117;-74
2023/12/03 19:47:51;;;;;;;52.90;32.12;;;;;;;;;;7356517;19;20002;-74
2023/12/03 19:50:16;;;;;;;53.45;32.35;;;;;;;;;;7360501;19;19998;-74
2023/12/03 19:52:41;;;;;;;49.13;29.98;;;;;;;;;;7362626;19;20002;-74
2023/12/03 19:55:07;;;;;;;54.83;32.30;;;;;;;;;;7352663;19;20516;-74
2023/12/03 19:57:32;;;;;;;54.85;32.67;;;;;;;;;;7363497;19;20089;-74
2023/12/03 19:59:57;;;;;;;49.03;29.60;;;;;;;;;;7357560;19;20073;-74
2023/12/03 20:02:22;;;;;;;53.40;31.02;;;;;;;;;;7346850;19;20451;-74
2023/12/03 20:04:47;;;;;;;51.90;31.45;;;;;;;;;;7355567;19;20124;-74
2023/12/03 20:07:13;;;;;;;52.17;30.33;;;;;;;;;;7353155;19;20009;-75
2023/12/03 20:09:38;;;;;;;52.25;29.48;;;;;;;;;;7351850;19;20458;-75
2023/12/03 20:12:03;;;;;;;48.08;28.40;;;;;;;;;;7340531;19;20110;-74
2023/12/03 20:14:28;;;;;;;55.53;31.55;;;;;;;;;;7358135;19;21133;-74
2023/12/03 20:16:53;;;;;;;50.63;31.05;;;;;;;;;;7361545;19;20026;-75
2023/12/03 20:19:20;;;;;;;49.35;28.17;;;;;;;;;;7352933;19;19995;-74
2023/12/03 20:21:45;;;;;;;47.67;28.17;;;;;;;;;;7355550;19;20522;-75
2023/12/03 20:24:10;;;;;;;52.03;30.50;;;;;;;;;;7354011;19;20007;-74
2023/12/03 20:26:35;;;;;;;48.05;28.75;;;;;;;;;;7358331;19;20108;-76
2023/12/03 20:29:01;;;;;;;47.75;29.02;;;;;;;;;;7358892;19;20003;-74
2023/12/03 20:31:29;;;;;;;48.35;28.85;;;;;;;;;;7356470;19;20019;-74
2023/12/03 20:33:54;;;;;;;43.35;26.17;;;;;;;;;;7352808;19;20006;-75
2023/12/03 20:36:19;;;;;;;43.22;25.60;;;;;;;;;;7350586;19;20443;-75
2023/12/03 20:38:45;;;;;;;46.35;27.58;;;;;;;;;;7348485;19;20077;-75
2023/12/03 20:41:22;;;;;;;48.17;28.60;;;;;;;;;;7348734;19;20019;-75
2023/12/03 20:43:47;;;;;;;46.70;28.70;;;;;;;;;;7359601;19;20030;-75
2023/12/03 20:46:12;;;;;;;44.90;26.20;;;;;;;;;;7351986;19;19998;-75
2023/12/03 20:48:37;;;;;;;47.05;26.95;;;;;;;;;;7357111;19;20383;-75
2023/12/03 20:51:06;;;;;;;41.40;25.85;;;;;;;;;;7355608;19;20658;-75
2023/12/03 20:53:31;;;;;;;42.25;26.23;;;;;;;;;;7355243;19;20023;-75
2023/12/03 20:55:56;;;;;;;46.03;27.23;;;;;;;;;;7351005;19;20006;-75
2023/12/03 20:58:21;;;;;;;43.65;26.05;;;;;;;;;;7352539;19;20375;-75
2023/12/03 21:00:47;;;;;;;44.10;25.63;;;;;;;;;;7357933;19;20397;-75
2023/12/03 21:03:13;;;;;;;42.67;26.35;;;;;;;;;;7305260;19;20050;-86
2023/12/03 21:05:38;;;;;;;45.78;28.00;;;;;;;;;;7316376;19;20399;-83
2023/12/03 21:08:03;;;;;;;40.67;25.73;;;;;;;;;;7324992;19;20006;-87
2023/12/03 21:10:28;;;;;;;42.38;24.63;;;;;;;;;;7351899;19;20243;-83
2023/12/03 21:12:54;;;;;;;42.60;26.17;;;;;;;;;;7355581;19;20644;-82
2023/12/03 21:15:19;;;;;;;42.88;26.48;;;;;;;;;;7362688;19;20019;-84
2023/12/03 21:17:44;;;;;;;41.97;25.13;;;;;;;;;;7356700;19;20068;-86
2023/12/03 21:20:10;;;;;;;40.55;24.33;;;;;;;;;;7353243;19;20647;-87
2023/12/03 21:22:36;;;;;;;42.78;26.27;;;;;;;;;;7359820;19;20243;-86
2023/12/03 21:25:03;;;;;;;43.08;25.98;;;;;;;;;;7360156;19;21025;-88
2023/12/03 21:27:28;;;;;;;41.55;26.17;;;;;;;;;;7360685;19;20007;-86
2023/12/03 21:29:54;;;;;;;43.03;26.52;;;;;;;;;;7361654;19;20012;-84
2023/12/03 21:32:19;;;;;;;42.45;25.30;;;;;;;;;;7351796;19;20247;-85
2023/12/03 21:34:44;;;;;;;41.55;25.65;;;;;;;;;;7357441;19;20003;-84
2023/12/03 21:37:09;;;;;;;38.08;24.23;;;;;;;;;;7353739;19;20382;-87
2023/12/03 21:39:34;;;;;;;39.40;24.27;;;;;;;;;;7359755;19;20002;-84
2023/12/03 21:42:00;;;;;;;39.88;24.22;;;;;;;;;;7362624;19;20338;-81
2023/12/03 21:44:25;;;;;;;41.35;24.23;;;;;;;;;;7355523;19;19995;-86
2023/12/03 21:46:50;;;;;;;38.38;23.40;;;;;;;;;;7362720;19;19998;-84
2023/12/03 21:49:16;;;;;;;37.75;23.20;;;;;;;;;;7353942;19;20123;-82
2023/12/03 21:51:41;;;;;;;42.05;23.05;;;;;;;;;;7361204;19;20010;-81
2023/12/03 21:54:07;;;;;;;41.10;25.70;;;;;;;;;;7359026;19;20002;-85
2023/12/03 21:56:32;;;;;;;38.85;24.13;;;;;;;;;;7357822;19;20048;-83
2023/12/03 21:58:57;;;;;;;41.03;24.45;;;;;;;;;;7358296;19;20002;-82
2023/12/03 22:01:22;;;;;;;42.53;25.63;;;;;;;;;;7355128;19;21025;-84
2023/12/03 22:03:47;;;;;;;40.85;24.52;;;;;;;;;;7352199;19;20250;-86
2023/12/03 22:06:13;;;;;;;41.53;24.60;;;;;;;;;;7360983;19;19994;-88
2023/12/03 22:08:38;;;;;;;41.78;26.35;;;;;;;;;;7361315;19;19999;-83
2023/12/03 22:11:04;;;;;;;39.70;24.55;;;;;;;;;;7363706;19;20451;-83
2023/12/03 22:13:29;;;;;;;40.53;23.90;;;;;;;;;;7366107;19;20024;-83
2023/12/03 22:15:54;;;;;;;41.75;25.25;;;;;;;;;;7368199;19;20042;-84
2023/12/03 22:18:19;;;;;;;39.17;24.13;;;;;;;;;;7362542;19;20002;-86
2023/12/03 22:20:44;;;;;;;41.55;24.40;;;;;;;;;;7360573;19;20015;-83
2023/12/03 22:23:09;;;;;;;42.05;25.08;;;;;;;;;;7363364;19;19998;-85
2023/12/03 22:25:35;;;;;;;39.25;24.27;;;;;;;;;;7350044;19;20398;-80
2023/12/03 22:28:00;;;;;;;40.44;24.94;;;;;;;;;;7361616;19;20025;-85
2023/12/03 22:30:25;;;;;;;39.64;24.98;;;;;;;;;;7359566;19;20304;-82
2023/12/03 22:32:50;;;;;;;39.63;24.88;;;;;;;;;;7361828;19;20127;-88
2023/12/03 22:35:15;;;;;;;41.70;24.48;;;;;;;;;;7360379;19;19994;-86
2023/12/03 22:37:40;;;;;;;38.33;24.00;;;;;;;;;;7362574;19;19999;-83
2023/12/03 22:40:06;;;;;;;43.00;25.15;;;;;;;;;;7355230;19;20238;-89
2023/12/03 22:42:31;;;;;;;41.45;25.13;;;;;;;;;;7345869;19;20803;-82
2023/12/03 22:44:56;;;;;;;43.10;24.73;;;;;;;;;;7367881;19;20023;-84
2023/12/03 22:47:22;;;;;;;41.75;24.75;;;;;;;;;;7343324;19;20539;-87
2023/12/03 22:49:47;;;;;;;41.92;24.77;;;;;;;;;;7363023;19;19998;-83
2023/12/03 22:52:12;;;;;;;38.53;24.02;;;;;;;;;;7355188;19;19995;-87
2023/12/03 22:54:38;;;;;;;37.30;23.25;;;;;;;;;;7352199;19;20460;-88
2023/12/03 22:57:03;;;;;;;36.33;22.52;;;;;;;;;;7362750;19;20061;-83
2023/12/03 22:59:28;;;;;;;37.95;23.33;;;;;;;;;;7352421;19;20432;-82
2023/12/03 23:01:53;;;;;;;43.10;25.27;;;;;;;;;;7360176;19;20259;-81
2023/12/03 23:04:18;;;;;;;39.75;24.27;;;;;;;;;;7354532;19;20385;-81
2023/12/03 23:06:43;;;;;;;39.97;25.40;;;;;;;;;;7365277;19;20040;-80
2023/12/03 23:09:10;;;;;;;35.95;22.75;;;;;;;;;;7361854;19;20007;-81
2023/12/03 23:11:36;;;;;;;34.90;22.05;;;;;;;;;;7364835;19;19998;-82
2023/12/03 23:14:01;;;;;;;36.17;22.50;;;;;;;;;;7369397;19;20006;-79
2023/12/03 23:16:26;;;;;;;36.28;23.83;;;;;;;;;;7361965;19;20037;-81
2023/12/03 23:18:52;;;;;;;35.83;22.52;;;;;;;;;;7364422;19;20605;-81
2023/12/03 23:21:17;;;;;;;37.17;23.85;;;;;;;;;;7365533;19;20007;-81
2023/12/03 23:23:42;;;;;;;37.40;23.05;;;;;;;;;;7368783;19;20026;-85
2023/12/03 23:26:07;;;;;;;34.85;22.60;;;;;;;;;;7365624;19;20011;-80
2023/12/03 23:28:32;;;;;;;36.75;22.95;;;;;;;;;;7362913;19;20003;-82
2023/12/03 23:30:58;;;;;;;36.65;22.75;;;;;;;;;;7368647;19;20003;-82
2023/12/03 23:33:23;;;;;;;36.45;22.33;;;;;;;;;;7360369;19;20011;-82
2023/12/03 23:35:48;;;;;;;37.20;23.48;;;;;;;;;;7368172;19;20074;-82
2023/12/03 23:38:13;;;;;;;37.95;23.80;;;;;;;;;;7364557;19;20231;-80
2023/12/03 23:40:38;;;;;;;35.15;22.50;;;;;;;;;;7362569;19;20318;-84
2023/12/03 23:43:04;;;;;;;35.80;23.80;;;;;;;;;;7360630;19;19994;-82
2023/12/03 23:45:29;;;;;;;36.92;22.17;;;;;;;;;;7365725;19;20230;-85
2023/12/03 23:47:54;;;;;;;33.15;21.30;;;;;;;;;;7361453;19;20014;-86
2023/12/03 23:50:19;;;;;;;43.42;26.05;;;;;;;;;;7360958;19;20410;-85
2023/12/03 23:52:44;;;;;;;35.67;22.45;;;;;;;;;;7369558;19;20334;-79
2023/12/03 23:55:09;;;;;;;35.72;22.25;;;;;;;;;;7363181;19;20243;-79
2023/12/03 23:57:35;;;;;;;34.80;23.10;;;;;;;;;;7369379;19;20002;-79
